Time,TemperatureF,DewpointF,PressureIn,WindDirection,WindDirectionDegrees,WindSpeedMPH,WindSpeedGustMPH,Humidity,HourlyPrecipIn,Conditions,Clouds,dailyrainin,SoftwareType,DateUTC
2013-01-01 00:02:00,27.5,18.7,30.11,NNE,24,7.0,7.0,69,0.00,,,0.03,Wunderground v.1.15,2013-01-01 07:02:00,
2013-01-01 00:07:00,27.2,18.7,30.11,NNE,33,7.0,7.0,70,0.00,,,0.00,Wunderground v.1.15,2013-01-01 07:07:00,
2013-01-01 00:17:00,27.1,18.6,30.12,NNE,18,7.0,8.0,70,0.00,,,0.00,Wunderground v.1.15,2013-01-01 07:17:00,
2013-01-01 00:22:00,27.0,18.5,30.12,NNE,28,7.0,11.0,70,0.00,,,0.00,Wunderground v.1.15,2013-01-01 07:22:00,
2013-01-01 00:32:00,26.7,18.2,30.12,NNW,348,6.0,6.0,70,0.00,,,0.00,Wunderground v.1.15,2013-01-01 07:32:00,
2013-01-01 00:37:00,26.4,17.9,30.12,NNW,344,6.0,6.0,70,0.00,,,0.00,Wunderground v.1.15,2013-01-01 07:37:00,
2013-01-01 00:47:00,26.2,17.7,30.12,NNE,24,6.0,9.0,70,0.00,,,0.00,Wunderground v.1.15,2013-01-01 07:47:00,
2013-01-01 00:57:00,25.9,17.5,30.12,North,355,5.0,6.0,70,0.00,,,0.00,Wunderground v.1.15,2013-01-01 07:57:00,
2013-01-01 01:02:00,25.6,17.2,30.13,North,355,4.0,4.0,70,0.00,,,0.00,Wunderground v.1.15,2013-01-01 08:02:00,
2013-01-01 01:12:00,25.2,17.1,30.14,North,360,3.0,3.0,71,0.00,,,0.00,Wunderground v.1.15,2013-01-01 08:12:00,
2013-01-01 01:17:00,24.9,17.1,30.14,North,360,4.0,7.0,72,0.00,,,0.00,Wunderground v.1.15,2013-01-01 08:17:00,
2013-01-01 01:22:00,24.8,17.1,30.14,North,355,4.0,5.0,72,0.00,,,0.00,Wunderground v.1.15,2013-01-01 08:22:00,
2013-01-01 01:32:00,24.7,17.0,30.14,North,355,4.0,4.0,72,0.00,,,0.00,Wunderground v.1.15,2013-01-01 08:32:00,
2013-01-01 01:37:00,24.5,16.8,30.14,North,360,3.0,4.0,72,0.00,,,0.00,Wunderground v.1.15,2013-01-01 08:37:00,
2013-01-01 01:47:00,24.4,17.0,30.14,NNE,14,3.0,5.0,73,0.00,,,0.00,Wunderground v.1.15,2013-01-01 08:47:00,
2013-01-01 01:52:00,24.3,16.9,30.14,NE,56,3.0,3.0,73,0.00,,,0.00,Wunderground v.1.15,2013-01-01 08:52:00,
2013-01-01 02:02:00,24.0,16.6,30.14,NE,56,3.0,3.0,73,0.00,,,0.00,Wunderground v.1.15,2013-01-01 09:02:00,
2013-01-01 02:07:00,24.0,16.6,30.14,NE,48,3.0,5.0,73,0.00,,,0.00,Wunderground v.1.15,2013-01-01 09:07:00,
2013-01-01 02:12:00,23.9,16.5,30.14,NNE,17,4.0,5.0,73,0.00,,,0.00,Wunderground v.1.15,2013-01-01 09:12:00,
2013-01-01 02:22:00,23.6,16.2,30.15,NNE,18,3.0,4.0,73,0.00,,,0.00,Wunderground v.1.15,2013-01-01 09:22:00,
2013-01-01 02:27:00,23.4,16.3,30.15,NNE,18,3.0,5.0,74,0.00,,,0.00,Wunderground v.1.15,2013-01-01 09:27:00,
2013-01-01 02:37:00,23.4,16.3,30.16,NNE,19,3.0,4.0,74,0.00,,,0.00,Wunderground v.1.15,2013-01-01 09:37:00,
2013-01-01 02:42:00,23.4,16.3,30.16,North,10,3.0,3.0,74,0.00,,,0.00,Wunderground v.1.15,2013-01-01 09:42:00,
2013-01-01 02:47:00,23.4,16.3,30.16,North,11,4.0,4.0,74,0.00,,,0.00,Wunderground v.1.15,2013-01-01 09:47:00,
2013-01-01 02:57:00,23.2,16.1,30.16,North,11,4.0,4.0,74,0.00,,,0.00,Wunderground v.1.15,2013-01-01 09:57:00,
2013-01-01 03:02:00,23.0,15.9,30.17,North,11,4.0,4.0,74,0.00,,,0.00,Wunderground v.1.15,2013-01-01 10:02:00,
2013-01-01 03:12:00,22.8,15.8,30.17,North,11,2.0,3.0,74,0.00,,,0.00,Wunderground v.1.15,2013-01-01 10:12:00,
2013-01-01 03:17:00,22.9,15.8,30.17,North,11,2.0,3.0,74,0.00,,,0.00,Wunderground v.1.15,2013-01-01 10:17:00,
2013-01-01 03:22:00,23.0,15.9,30.18,North,11,2.0,3.0,74,0.00,,,0.00,Wunderground v.1.15,2013-01-01 10:22:00,
2013-01-01 03:32:00,23.1,16.0,30.18,North,11,3.0,3.0,74,0.00,,,0.00,Wunderground v.1.15,2013-01-01 10:32:00,
2013-01-01 03:42:00,23.1,16.0,30.19,NNE,28,3.0,5.0,74,0.00,,,0.00,Wunderground v.1.15,2013-01-01 10:42:00,
2013-01-01 03:47:00,23.4,16.3,30.19,NNE,28,4.0,5.0,74,0.00,,,0.00,Wunderground v.1.15,2013-01-01 10:47:00,
2013-01-01 03:57:00,23.6,15.9,30.19,NNE,30,4.0,6.0,72,0.00,,,0.00,Wunderground v.1.15,2013-01-01 10:57:00,
2013-01-01 04:02:00,23.5,15.5,30.19,NNE,24,5.0,5.0,71,0.00,,,0.00,Wunderground v.1.15,2013-01-01 11:02:00,
2013-01-01 04:07:00,23.4,15.4,30.19,NNE,26,5.0,5.0,71,0.00,,,0.00,Wunderground v.1.15,2013-01-01 11:07:00,
2013-01-01 04:17:00,23.1,14.8,30.19,NNE,22,5.0,7.0,70,0.00,,,0.00,Wunderground v.1.15,2013-01-01 11:17:00,
2013-01-01 04:22:00,23.0,16.6,30.19,NNE,15,6.0,6.0,76,0.00,,,0.00,Wunderground v.1.15,2013-01-01 11:22:00,
2013-01-01 04:32:00,22.7,14.4,30.19,NE,34,5.0,5.0,70,0.00,,,0.00,Wunderground v.1.15,2013-01-01 11:32:00,
2013-01-01 04:37:00,22.5,14.5,30.20,NE,35,5.0,5.0,71,0.00,,,0.00,Wunderground v.1.15,2013-01-01 11:37:00,
2013-01-01 04:42:00,22.4,14.4,30.20,NNE,22,5.0,8.0,71,0.00,,,0.00,Wunderground v.1.15,2013-01-01 11:42:00,
2013-01-01 04:52:00,22.1,13.8,30.20,NNE,28,5.0,5.0,70,0.00,,,0.00,Wunderground v.1.15,2013-01-01 11:52:00,
2013-01-01 04:57:00,22.0,13.7,30.20,NNE,27,4.0,5.0,70,0.00,,,0.00,Wunderground v.1.15,2013-01-01 11:57:00,
2013-01-01 05:07:00,21.7,13.7,30.20,NNE,28,3.0,4.0,71,0.00,,,0.00,Wunderground v.1.15,2013-01-01 12:07:00,
2013-01-01 05:12:00,21.6,13.6,30.20,NNE,27,3.0,3.0,71,0.00,,,0.00,Wunderground v.1.15,2013-01-01 12:12:00,
2013-01-01 05:22:00,21.2,13.3,30.21,NNE,27,2.0,3.0,71,0.00,,,0.00,Wunderground v.1.15,2013-01-01 12:22:00,
2013-01-01 05:27:00,21.1,13.2,30.21,NNE,27,2.0,3.0,71,0.00,,,0.00,Wunderground v.1.15,2013-01-01 12:27:00,
2013-01-01 05:32:00,21.1,13.2,30.21,NNE,28,2.0,2.0,71,0.00,,,0.00,Wunderground v.1.15,2013-01-01 12:32:00,
2013-01-01 05:42:00,20.7,13.1,30.22,NNE,27,1.0,1.0,72,0.00,,,0.00,Wunderground v.1.15,2013-01-01 12:42:00,
2013-01-01 05:47:00,20.7,13.1,30.22,NNE,27,1.0,1.0,72,0.00,,,0.00,Wunderground v.1.15,2013-01-01 12:47:00,
2013-01-01 05:52:00,20.6,13.0,30.22,NNE,27,1.0,2.0,72,0.00,,,0.00,Wunderground v.1.15,2013-01-01 12:52:00,
2013-01-01 06:02:00,20.5,12.9,30.23,NNE,26,2.0,2.0,72,0.00,,,0.00,Wunderground v.1.15,2013-01-01 13:02:00,
2013-01-01 06:07:00,20.6,13.0,30.23,NNE,27,2.0,2.0,72,0.00,,,0.00,Wunderground v.1.15,2013-01-01 13:07:00,
2013-01-01 06:17:00,20.7,13.1,30.23,NNE,28,2.0,3.0,72,0.00,,,0.00,Wunderground v.1.15,2013-01-01 13:17:00,
2013-01-01 06:22:00,20.8,13.2,30.23,NNE,28,3.0,3.0,72,0.00,,,0.00,Wunderground v.1.15,2013-01-01 13:22:00,
2013-01-01 06:27:00,21.1,13.5,30.23,NNE,31,4.0,4.0,72,0.00,,,0.00,Wunderground v.1.15,2013-01-01 13:27:00,
2013-01-01 06:37:00,21.0,13.1,30.23,NE,39,4.0,6.0,71,0.00,,,0.00,Wunderground v.1.15,2013-01-01 13:37:00,
2013-01-01 06:42:00,20.7,12.8,30.23,NE,42,5.0,5.0,71,0.00,,,0.00,Wunderground v.1.15,2013-01-01 13:42:00,
2013-01-01 06:47:00,20.7,12.8,30.24,NNE,33,5.0,5.0,71,0.00,,,0.00,Wunderground v.1.15,2013-01-01 13:47:00,
2013-01-01 06:57:00,21.3,13.4,30.23,NNE,23,6.0,8.0,71,0.00,,,0.00,Wunderground v.1.15,2013-01-01 13:57:00,
2013-01-01 07:02:00,21.2,12.9,30.23,NNE,28,6.0,6.0,70,0.00,,,0.00,Wunderground v.1.15,2013-01-01 14:02:00,
2013-01-01 07:07:00,21.2,12.9,30.23,NE,51,6.0,6.0,70,0.00,,,0.00,Wunderground v.1.15,2013-01-01 14:07:00,
2013-01-01 07:17:00,21.3,13.0,30.24,NNE,18,5.0,5.0,70,0.00,,,0.00,Wunderground v.1.15,2013-01-01 14:17:00,
2013-01-01 07:22:00,21.0,12.7,30.24,NNE,19,5.0,6.0,70,0.00,,,0.00,Wunderground v.1.15,2013-01-01 14:22:00,
2013-01-01 07:32:00,20.9,13.0,30.24,North,10,6.0,6.0,71,0.00,,,0.00,Wunderground v.1.15,2013-01-01 14:32:00,
2013-01-01 07:37:00,20.6,12.4,30.25,North,9,4.0,6.0,70,0.00,,,0.00,Wunderground v.1.15,2013-01-01 14:37:00,
2013-01-01 07:42:00,19.8,11.6,30.25,North,9,1.0,1.0,70,0.00,,,0.00,Wunderground v.1.15,2013-01-01 14:42:00,
2013-01-01 07:52:00,19.4,11.8,30.26,North,9,1.0,3.0,72,0.00,,,0.00,Wunderground v.1.15,2013-01-01 14:52:00,
2013-01-01 07:57:00,19.8,12.5,30.26,North,9,2.0,3.0,73,0.00,,,0.00,Wunderground v.1.15,2013-01-01 14:57:00,
2013-01-01 08:07:00,20.0,12.7,30.26,North,9,2.0,2.0,73,0.00,,,0.00,Wunderground v.1.15,2013-01-01 15:07:00,
2013-01-01 08:12:00,20.4,13.1,30.26,North,9,1.0,1.0,73,0.00,,,0.00,Wunderground v.1.15,2013-01-01 15:12:00,
2013-01-01 08:22:00,21.0,13.7,30.27,North,9,1.0,2.0,73,0.00,,,0.00,Wunderground v.1.15,2013-01-01 15:22:00,
2013-01-01 08:27:00,21.2,13.6,30.27,North,9,1.0,2.0,72,0.00,,,0.00,Wunderground v.1.15,2013-01-01 15:27:00,
2013-01-01 08:32:00,21.7,14.1,30.28,North,9,1.0,3.0,72,0.00,,,0.00,Wunderground v.1.15,2013-01-01 15:32:00,
2013-01-01 08:42:00,22.6,14.3,30.28,North,9,2.0,2.0,70,0.00,,,0.00,Wunderground v.1.15,2013-01-01 15:42:00,
2013-01-01 08:47:00,23.3,15.0,30.29,North,9,1.0,2.0,70,0.00,,,0.00,Wunderground v.1.15,2013-01-01 15:47:00,
2013-01-01 08:57:00,23.3,14.0,30.30,North,350,3.0,4.0,67,0.00,,,0.00,Wunderground v.1.15,2013-01-01 15:57:00,
2013-01-01 09:02:00,23.6,13.9,30.30,North,360,4.0,4.0,66,0.00,,,0.00,Wunderground v.1.15,2013-01-01 16:02:00,
2013-01-01 09:07:00,23.9,13.8,30.31,North,9,4.0,4.0,65,0.00,,,0.00,Wunderground v.1.15,2013-01-01 16:07:00,
2013-01-01 09:17:00,24.3,13.5,30.31,North,5,4.0,4.0,63,0.00,,,0.00,Wunderground v.1.15,2013-01-01 16:17:00,
2013-01-01 09:22:00,24.8,14.0,30.31,North,360,3.0,4.0,63,0.00,,,0.00,Wunderground v.1.15,2013-01-01 16:22:00,
2013-01-01 09:32:00,25.3,14.1,30.31,North,351,3.0,3.0,62,0.00,,,0.00,Wunderground v.1.15,2013-01-01 16:32:00,
2013-01-01 09:37:00,25.4,14.2,30.32,North,360,4.0,4.0,62,0.00,,,0.00,Wunderground v.1.15,2013-01-01 16:37:00,
2013-01-01 09:42:00,25.6,14.4,30.31,NNW,344,4.0,4.0,62,0.00,,,0.00,Wunderground v.1.15,2013-01-01 16:42:00,
2013-01-01 09:52:00,26.5,14.9,30.31,North,349,3.0,3.0,61,0.00,,,0.00,Wunderground v.1.15,2013-01-01 16:52:00,
2013-01-01 09:57:00,27.1,15.0,30.31,North,349,2.0,3.0,60,0.00,,,0.00,Wunderground v.1.15,2013-01-01 16:57:00,
2013-01-01 10:07:00,28.1,15.6,30.31,North,5,0.0,1.0,59,0.00,,,0.00,Wunderground v.1.15,2013-01-01 17:07:00,
2013-01-01 10:12:00,28.8,15.9,30.31,North,360,0.0,0.0,58,0.00,,,0.00,Wunderground v.1.15,2013-01-01 17:12:00,
2013-01-01 10:17:00,29.1,15.3,30.31,North,5,0.0,0.0,56,0.00,,,0.00,Wunderground v.1.15,2013-01-01 17:17:00,
2013-01-01 10:22:00,29.5,15.3,30.31,NNW,344,0.0,0.0,55,0.00,,,0.00,Wunderground v.1.15,2013-01-01 17:22:00,
2013-01-01 10:32:00,29.7,14.6,30.31,NNE,13,3.0,7.0,53,0.00,,,0.00,Wunderground v.1.15,2013-01-01 17:32:00,
2013-01-01 10:37:00,29.4,14.4,30.31,North,360,4.0,7.0,53,0.00,,,0.00,Wunderground v.1.15,2013-01-01 17:37:00,
2013-01-01 10:47:00,29.9,14.4,30.31,NNW,327,2.0,4.0,52,0.00,,,0.00,Wunderground v.1.15,2013-01-01 17:47:00,
2013-01-01 10:52:00,29.8,14.3,30.31,NNW,332,1.0,1.0,52,0.00,,,0.00,Wunderground v.1.15,2013-01-01 17:52:00,
2013-01-01 10:57:00,30.2,14.7,30.30,NNW,333,0.0,1.0,52,0.00,,,0.00,Wunderground v.1.15,2013-01-01 17:57:00,
2013-01-01 11:07:00,30.7,14.2,30.30,NNW,340,1.0,5.0,50,0.00,,,0.00,Wunderground v.1.15,2013-01-01 18:07:00,
2013-01-01 11:12:00,30.7,15.1,30.29,SW,225,3.0,3.0,52,0.00,,,0.00,Wunderground v.1.15,2013-01-01 18:12:00,
2013-01-01 11:22:00,32.3,15.7,30.28,NW,310,0.0,2.0,50,0.00,,,0.00,Wunderground v.1.15,2013-01-01 18:22:00,
2013-01-01 11:27:00,31.5,14.0,30.27,NNW,330,2.0,2.0,48,0.00,,,0.00,Wunderground v.1.15,2013-01-01 18:27:00,
2013-01-01 11:32:00,31.7,14.2,30.27,NNW,343,3.0,3.0,48,0.00,,,0.00,Wunderground v.1.15,2013-01-01 18:32:00,
2013-01-01 11:37:00,31.6,14.1,30.26,North,349,3.0,10.0,48,0.00,,,0.00,Wunderground v.1.15,2013-01-01 18:37:00,
2013-01-01 11:47:00,31.1,14.1,30.25,NNE,13,7.0,8.0,49,0.00,,,0.00,Wunderground v.1.15,2013-01-01 18:47:00,
2013-01-01 11:52:00,31.7,14.2,30.25,NNW,345,6.0,8.0,48,0.00,,,0.00,Wunderground v.1.15,2013-01-01 18:52:00,
2013-01-01 12:02:00,31.4,13.9,30.24,North,360,8.0,8.0,48,0.00,,,0.00,Wunderground v.1.15,2013-01-01 19:02:00,
2013-01-01 12:07:00,31.5,14.0,30.24,NNW,342,8.0,8.0,48,0.00,,,0.00,Wunderground v.1.15,2013-01-01 19:07:00,
2013-01-01 12:12:00,31.5,14.0,30.23,NNW,346,7.0,7.0,48,0.00,,,0.00,Wunderground v.1.15,2013-01-01 19:12:00,
2013-01-01 12:17:00,31.4,13.5,30.23,North,360,7.0,7.0,47,0.00,,,0.00,Wunderground v.1.15,2013-01-01 19:17:00,
2013-01-01 12:27:00,32.0,14.5,30.23,NNW,339,5.0,7.0,48,0.00,,,0.00,Wunderground v.1.15,2013-01-01 19:27:00,
2013-01-01 12:37:00,31.9,13.9,30.23,North,355,6.0,8.0,47,0.00,,,0.00,Wunderground v.1.15,2013-01-01 19:37:00,
2013-01-01 12:42:00,32.1,14.1,30.23,NNW,341,5.0,6.0,47,0.00,,,0.00,Wunderground v.1.15,2013-01-01 19:42:00,
2013-01-01 12:47:00,31.9,13.4,30.22,NNW,347,6.0,10.0,46,0.00,,,0.00,Wunderground v.1.15,2013-01-01 19:47:00,
2013-01-01 12:57:00,32.2,14.2,30.23,North,349,6.0,8.0,47,0.00,,,0.00,Wunderground v.1.15,2013-01-01 19:57:00,
2013-01-01 13:02:00,32.3,14.3,30.23,North,5,4.0,6.0,47,0.00,,,0.00,Wunderground v.1.15,2013-01-01 20:02:00,
2013-01-01 13:12:00,32.3,14.3,30.22,WNW,302,5.0,8.0,47,0.00,,,0.00,Wunderground v.1.15,2013-01-01 20:12:00,
2013-01-01 13:17:00,32.1,14.1,30.22,NNW,335,6.0,11.0,47,0.00,,,0.00,Wunderground v.1.15,2013-01-01 20:17:00,
2013-01-01 13:22:00,31.8,13.8,30.23,North,360,6.0,6.0,47,0.00,,,0.00,Wunderground v.1.15,2013-01-01 20:22:00,
2013-01-01 13:27:00,32.4,14.4,30.22,WNW,298,3.0,7.0,47,0.00,,,0.00,Wunderground v.1.15,2013-01-01 20:27:00,
2013-01-01 13:37:00,32.1,14.1,30.22,North,360,5.0,7.0,47,0.00,,,0.00,Wunderground v.1.15,2013-01-01 20:37:00,
2013-01-01 13:42:00,32.6,14.1,30.22,NW,310,5.0,7.0,46,0.00,,,0.00,Wunderground v.1.15,2013-01-01 20:42:00,
2013-01-01 13:52:00,33.2,13.6,30.23,NNW,331,6.0,6.0,44,0.00,,,0.00,Wunderground v.1.15,2013-01-01 20:52:00,
2013-01-01 13:57:00,33.0,13.9,30.23,North,349,7.0,11.0,45,0.00,,,0.00,Wunderground v.1.15,2013-01-01 20:57:00,
2013-01-01 14:02:00,33.4,13.8,30.23,NNW,347,7.0,12.0,44,0.00,,,0.00,Wunderground v.1.15,2013-01-01 21:02:00,
2013-01-01 14:12:00,33.0,13.4,30.23,NNW,333,9.0,16.0,44,0.00,,,0.00,Wunderground v.1.15,2013-01-01 21:12:00,
2013-01-01 14:22:00,33.1,13.0,30.23,NW,326,10.0,15.0,43,0.00,,,0.00,Wunderground v.1.15,2013-01-01 21:22:00,
2013-01-01 14:27:00,33.1,13.0,30.23,NNW,346,11.0,15.0,43,0.00,,,0.00,Wunderground v.1.15,2013-01-01 21:27:00,
2013-01-01 14:32:00,33.3,13.2,30.23,NW,305,11.0,13.0,43,0.00,,,0.00,Wunderground v.1.15,2013-01-01 21:32:00,
2013-01-01 14:37:00,33.5,12.8,30.23,NW,313,11.0,13.0,42,0.00,,,0.00,Wunderground v.1.15,2013-01-01 21:37:00,
2013-01-01 14:47:00,32.9,12.3,30.23,NW,304,12.0,12.0,42,0.00,,,0.00,Wunderground v.1.15,2013-01-01 21:47:00,
2013-01-01 14:52:00,32.8,12.7,30.23,NW,320,13.0,18.0,43,0.00,,,0.00,Wunderground v.1.15,2013-01-01 21:52:00,
2013-01-01 15:02:00,33.1,13.0,30.24,NNW,327,11.0,14.0,43,0.00,,,0.00,Wunderground v.1.15,2013-01-01 22:02:00,
2013-01-01 15:07:00,33.0,12.9,30.24,North,349,11.0,14.0,43,0.00,,,0.00,Wunderground v.1.15,2013-01-01 22:07:00,
2013-01-01 15:17:00,32.8,12.7,30.24,NNW,334,11.0,14.0,43,0.00,,,0.00,Wunderground v.1.15,2013-01-01 22:17:00,
2013-01-01 15:22:00,32.9,12.3,30.24,NW,306,12.0,14.0,42,0.00,,,0.00,Wunderground v.1.15,2013-01-01 22:22:00,
2013-01-01 15:27:00,32.9,12.8,30.24,WNW,300,12.0,14.0,43,0.00,,,0.00,Wunderground v.1.15,2013-01-01 22:27:00,
2013-01-01 15:32:00,32.7,12.6,30.25,NW,321,11.0,11.0,43,0.00,,,0.00,Wunderground v.1.15,2013-01-01 22:32:00,
2013-01-01 15:42:00,32.8,12.7,30.24,NW,305,10.0,12.0,43,0.00,,,0.00,Wunderground v.1.15,2013-01-01 22:42:00,
2013-01-01 15:47:00,32.5,12.5,30.24,NW,309,13.0,16.0,43,0.00,,,0.00,Wunderground v.1.15,2013-01-01 22:47:00,
2013-01-01 15:52:00,32.4,11.8,30.25,NW,311,14.0,14.0,42,0.00,,,0.00,Wunderground v.1.15,2013-01-01 22:52:00,
2013-01-01 16:02:00,32.4,12.4,30.26,NW,308,12.0,13.0,43,0.00,,,0.00,Wunderground v.1.15,2013-01-01 23:02:00,
2013-01-01 16:07:00,32.3,12.3,30.26,North,355,10.0,13.0,43,0.00,,,0.00,Wunderground v.1.15,2013-01-01 23:07:00,
2013-01-01 16:12:00,32.0,12.0,30.26,NNW,342,9.0,10.0,43,0.00,,,0.00,Wunderground v.1.15,2013-01-01 23:12:00,
2013-01-01 16:22:00,31.8,12.3,30.27,NNE,14,9.0,10.0,44,0.00,,,0.00,Wunderground v.1.15,2013-01-01 23:22:00,
2013-01-01 16:27:00,31.6,12.2,30.27,NNW,332,9.0,15.0,44,0.00,,,0.00,Wunderground v.1.15,2013-01-01 23:27:00,
2013-01-01 16:32:00,31.5,11.5,30.27,North,355,10.0,13.0,43,0.00,,,0.00,Wunderground v.1.15,2013-01-01 23:32:00,
2013-01-01 16:42:00,31.2,11.3,30.28,NW,326,9.0,12.0,43,0.00,,,0.00,Wunderground v.1.15,2013-01-01 23:42:00,
2013-01-01 16:47:00,31.0,11.1,30.28,NNW,329,9.0,15.0,43,0.00,,,0.00,Wunderground v.1.15,2013-01-01 23:47:00,
2013-01-01 16:52:00,30.7,11.3,30.29,North,355,9.0,9.0,44,0.00,,,0.00,Wunderground v.1.15,2013-01-01 23:52:00,
2013-01-01 17:02:00,30.3,11.5,30.29,NNW,340,9.0,9.0,45,0.00,,,0.00,Wunderground v.1.15,2013-01-02 00:02:00,
2013-01-01 17:07:00,30.1,11.3,30.29,NW,325,10.0,11.0,45,0.00,,,0.00,Wunderground v.1.15,2013-01-02 00:07:00,
2013-01-01 17:17:00,29.8,11.0,30.29,NNW,345,6.0,9.0,45,0.00,,,0.00,Wunderground v.1.15,2013-01-02 00:17:00,
2013-01-01 17:22:00,29.6,10.8,30.29,NNW,347,5.0,5.0,45,0.00,,,0.00,Wunderground v.1.15,2013-01-02 00:22:00,
2013-01-01 17:32:00,29.2,10.5,30.29,NNE,25,5.0,6.0,45,0.00,,,0.00,Wunderground v.1.15,2013-01-02 00:32:00,
2013-01-01 17:37:00,29.0,10.3,30.29,NE,42,5.0,6.0,45,0.00,,,0.00,Wunderground v.1.15,2013-01-02 00:37:00,
2013-01-01 17:42:00,28.9,10.7,30.29,NNE,29,5.0,5.0,46,0.00,,,0.00,Wunderground v.1.15,2013-01-02 00:42:00,
2013-01-01 17:47:00,28.8,10.6,30.29,NE,39,5.0,5.0,46,0.00,,,0.00,Wunderground v.1.15,2013-01-02 00:47:00,
2013-01-01 17:57:00,28.6,10.4,30.30,North,10,4.0,5.0,46,0.00,,,0.00,Wunderground v.1.15,2013-01-02 00:57:00,
2013-01-01 18:02:00,28.6,10.4,30.30,North,360,4.0,4.0,46,0.00,,,0.00,Wunderground v.1.15,2013-01-02 01:02:00,
2013-01-01 18:12:00,28.5,10.8,30.30,NNE,24,6.0,10.0,47,0.00,,,0.00,Wunderground v.1.15,2013-01-02 01:12:00,
2013-01-01 18:17:00,28.5,10.8,30.31,North,5,8.0,10.0,47,0.00,,,0.00,Wunderground v.1.15,2013-01-02 01:17:00,
2013-01-01 18:27:00,28.3,10.6,30.31,NW,319,9.0,13.0,47,0.00,,,0.00,Wunderground v.1.15,2013-01-02 01:27:00,
2013-01-01 18:32:00,28.4,10.7,30.30,NNW,343,11.0,11.0,47,0.00,,,0.00,Wunderground v.1.15,2013-01-02 01:32:00,
2013-01-01 18:42:00,28.4,10.2,30.30,North,355,13.0,13.0,46,0.00,,,0.00,Wunderground v.1.15,2013-01-02 01:42:00,
2013-01-01 18:47:00,28.0,10.8,30.31,NNW,344,10.0,13.0,48,0.00,,,0.00,Wunderground v.1.15,2013-01-02 01:47:00,
2013-01-01 18:57:00,27.1,10.4,30.32,North,355,7.0,9.0,49,0.00,,,0.00,Wunderground v.1.15,2013-01-02 01:57:00,
2013-01-01 19:02:00,26.8,10.6,30.32,NNE,31,6.0,6.0,50,0.00,,,0.00,Wunderground v.1.15,2013-01-02 02:02:00,
2013-01-01 19:12:00,26.3,10.2,30.32,NNE,25,5.0,5.0,50,0.00,,,0.00,Wunderground v.1.15,2013-01-02 02:12:00,
2013-01-01 19:17:00,26.3,10.2,30.33,NE,38,5.0,7.0,50,0.00,,,0.00,Wunderground v.1.15,2013-01-02 02:17:00,
2013-01-01 19:22:00,26.7,10.5,30.34,North,9,7.0,7.0,50,0.00,,,0.00,Wunderground v.1.15,2013-01-02 02:22:00,
2013-01-01 19:32:00,26.1,10.4,30.34,NNE,25,5.0,5.0,51,0.00,,,0.00,Wunderground v.1.15,2013-01-02 02:32:00,
2013-01-01 19:37:00,26.0,10.3,30.34,NNE,26,3.0,5.0,51,0.00,,,0.00,Wunderground v.1.15,2013-01-02 02:37:00,
2013-01-01 19:42:00,25.9,10.2,30.34,NNE,28,3.0,4.0,51,0.00,,,0.00,Wunderground v.1.15,2013-01-02 02:42:00,
2013-01-01 19:52:00,26.7,11.0,30.34,North,355,8.0,8.0,51,0.00,,,0.00,Wunderground v.1.15,2013-01-02 02:52:00,
2013-01-01 19:57:00,26.5,10.8,30.34,NW,321,8.0,8.0,51,0.00,,,0.00,Wunderground v.1.15,2013-01-02 02:57:00,
2013-01-01 20:07:00,26.2,10.9,30.34,North,351,6.0,9.0,52,0.00,,,0.00,Wunderground v.1.15,2013-01-02 03:07:00,
2013-01-01 20:12:00,26.1,10.9,30.34,NNW,338,6.0,7.0,52,0.00,,,0.00,Wunderground v.1.15,2013-01-02 03:12:00,
2013-01-01 20:17:00,25.8,10.6,30.35,North,360,6.0,9.0,52,0.00,,,0.00,Wunderground v.1.15,2013-01-02 03:17:00,
2013-01-01 20:27:00,25.4,10.6,30.35,NNE,31,4.0,5.0,53,0.00,,,0.00,Wunderground v.1.15,2013-01-02 03:27:00,
2013-01-01 20:32:00,25.4,11.0,30.35,NE,36,5.0,5.0,54,0.00,,,0.00,Wunderground v.1.15,2013-01-02 03:32:00,
2013-01-01 20:42:00,25.5,11.1,30.36,NNE,25,6.0,6.0,54,0.00,,,0.00,Wunderground v.1.15,2013-01-02 03:42:00,
2013-01-01 20:47:00,25.4,11.0,30.35,NNE,22,5.0,6.0,54,0.00,,,0.00,Wunderground v.1.15,2013-01-02 03:47:00,
2013-01-01 20:52:00,25.2,11.3,30.35,North,360,5.0,8.0,55,0.00,,,0.00,Wunderground v.1.15,2013-01-02 03:52:00,
2013-01-01 21:02:00,24.9,11.0,30.35,North,10,4.0,4.0,55,0.00,,,0.00,Wunderground v.1.15,2013-01-02 04:02:00,
2013-01-01 21:07:00,24.7,10.8,30.35,North,9,2.0,4.0,55,0.00,,,0.00,Wunderground v.1.15,2013-01-02 04:07:00,
2013-01-01 21:12:00,24.5,11.0,30.35,North,10,1.0,2.0,56,0.00,,,0.00,Wunderground v.1.15,2013-01-02 04:12:00,
2013-01-01 21:22:00,24.0,11.0,30.35,NNE,28,3.0,4.0,57,0.00,,,0.00,Wunderground v.1.15,2013-01-02 04:22:00,
2013-01-01 21:27:00,23.9,10.9,30.35,NNE,14,4.0,5.0,57,0.00,,,0.00,Wunderground v.1.15,2013-01-02 04:27:00,
2013-01-01 21:37:00,24.1,11.4,30.35,North,355,6.0,7.0,58,0.00,,,0.00,Wunderground v.1.15,2013-01-02 04:37:00,
2013-01-01 21:42:00,23.9,11.3,30.35,North,355,5.0,5.0,58,0.00,,,0.00,Wunderground v.1.15,2013-01-02 04:42:00,
2013-01-01 21:47:00,23.7,11.1,30.35,NNW,337,5.0,6.0,58,0.00,,,0.00,Wunderground v.1.15,2013-01-02 04:47:00,
2013-01-01 21:57:00,23.4,11.2,30.35,NW,326,7.0,7.0,59,0.00,,,0.00,Wunderground v.1.15,2013-01-02 04:57:00,
2013-01-01 22:02:00,23.4,11.2,30.36,NNW,342,6.0,6.0,59,0.00,,,0.00,Wunderground v.1.15,2013-01-02 05:02:00,
2013-01-01 22:12:00,23.3,11.1,30.36,NNE,30,5.0,5.0,59,0.00,,,0.00,Wunderground v.1.15,2013-01-02 05:12:00,
2013-01-01 22:17:00,22.9,11.1,30.36,NNE,30,3.0,5.0,60,0.00,,,0.00,Wunderground v.1.15,2013-01-02 05:17:00,
2013-01-01 22:22:00,22.7,10.9,30.36,NNE,30,3.0,5.0,60,0.00,,,0.00,Wunderground v.1.15,2013-01-02 05:22:00,
2013-01-01 22:27:00,22.7,11.3,30.36,North,355,4.0,5.0,61,0.00,,,0.00,Wunderground v.1.15,2013-01-02 05:27:00,
2013-01-01 22:32:00,22.4,11.0,30.36,NNE,30,4.0,4.0,61,0.00,,,0.00,Wunderground v.1.15,2013-01-02 05:32:00,
2013-01-01 22:37:00,22.2,10.8,30.37,NNE,32,4.0,4.0,61,0.00,,,0.00,Wunderground v.1.15,2013-01-02 05:37:00,
2013-01-01 22:47:00,21.9,10.5,30.37,NNE,22,4.0,4.0,61,0.00,,,0.00,Wunderground v.1.15,2013-01-02 05:47:00,
2013-01-01 22:52:00,21.6,10.2,30.37,NE,42,4.0,4.0,61,0.00,,,0.00,Wunderground v.1.15,2013-01-02 05:52:00,
2013-01-01 23:02:00,21.7,11.0,30.37,NNE,26,3.0,4.0,63,0.00,,,0.00,Wunderground v.1.15,2013-01-02 06:02:00,
2013-01-01 23:12:00,21.5,10.8,30.37,NNE,21,5.0,5.0,63,0.00,,,0.00,Wunderground v.1.15,2013-01-02 06:12:00,
2013-01-01 23:17:00,21.1,10.5,30.37,North,5,5.0,5.0,63,0.00,,,0.00,Wunderground v.1.15,2013-01-02 06:17:00,
2013-01-01 23:27:00,20.2,10.3,30.37,North,360,5.0,6.0,65,0.00,,,0.00,Wunderground v.1.15,2013-01-02 06:27:00,
2013-01-01 23:32:00,19.7,9.8,30.38,North,360,4.0,4.0,65,0.00,,,0.00,Wunderground v.1.15,2013-01-02 06:32:00,
2013-01-01 23:37:00,19.1,9.3,30.38,NNW,335,4.0,5.0,65,0.00,,,0.00,Wunderground v.1.15,2013-01-02 06:37:00,
2013-01-01 23:47:00,19.7,10.2,30.38,North,9,4.0,5.0,66,0.00,,,0.00,Wunderground v.1.15,2013-01-02 06:47:00,
2013-01-01 23:52:00,19.2,9.7,30.39,North,9,3.0,4.0,66,0.00,,,0.00,Wunderground v.1.15,2013-01-02 06:52:00,
2013-01-01 23:57:00,19.3,10.1,30.39,North,10,4.0,5.0,67,0.00,,,0.00,Wunderground v.1.15,2013-01-02 06:57:00,